Time;durP1;ratioP1;P1;durP2;ratioP2;P2;SDS_P1;SDS_P2;PMS_P1;PMS_P2;Temp;Humidity;BMP_temperature;BMP_pressure;BME280_temperature;BME280_humidity;BME280_pressure;Samples;Min_cycle;Max_cycle;Signal;HPM_P1;HPM_P2
2024/01/31 00:00:52;;;;;;;4.15;3.75;;;;;;;8.54;100.00;100194.72;4169717;28;20212;-50
2024/01/31 00:02:54;;;;;;;3.63;3.10;;;;;;;8.51;100.00;100186.09;4175309;28;20524;-49
2024/01/31 00:04:56;;;;;;;2.67;2.00;;;;;;;8.51;100.00;100197.00;4171473;28;20204;-50
2024/01/31 00:06:58;;;;;;;4.00;3.60;;;;;;;8.50;100.00;100187.97;4173005;28;20594;-49
2024/01/31 00:09:00;;;;;;;4.15;3.58;;;;;;;8.50;100.00;100184.41;4170170;28;20234;-51
2024/01/31 00:11:03;;;;;;;3.92;3.55;;;;;;;8.50;100.00;100192.59;4171687;28;20242;-50
2024/01/31 00:13:04;;;;;;;5.18;4.32;;;;;;;8.52;100.00;100195.97;4170926;28;20232;-49
2024/01/31 00:15:06;;;;;;;5.95;3.92;;;;;;;8.56;100.00;100189.09;4154389;28;20738;-50
2024/01/31 00:17:08;;;;;;;3.05;2.78;;;;;;;8.57;100.00;100198.94;4185756;28;20701;-51
2024/01/31 00:19:10;;;;;;;3.55;3.15;;;;;;;8.54;100.00;100188.44;4170803;28;20220;-50
2024/01/31 00:21:12;;;;;;;3.50;3.08;;;;;;;8.53;100.00;100186.72;4183752;28;20212;-50
2024/01/31 00:23:14;;;;;;;6.18;3.67;;;;;;;8.54;100.00;100199.34;4175109;28;20234;-50
2024/01/31 00:25:15;;;;;;;4.18;3.78;;;;;;;8.55;100.00;100199.13;4185361;28;20204;-50
2024/01/31 00:27:17;;;;;;;4.05;3.25;;;;;;;8.55;100.00;100195.59;4183133;28;20294;-50
2024/01/31 00:29:19;;;;;;;4.28;3.88;;;;;;;8.55;100.00;100195.59;4167507;28;21101;-51
2024/01/31 00:31:21;;;;;;;4.28;3.85;;;;;;;8.61;100.00;100197.53;4176113;28;20204;-49
2024/01/31 00:33:23;;;;;;;4.47;4.07;;;;;;;8.57;100.00;100193.50;4168613;28;20240;-50
2024/01/31 00:35:25;;;;;;;4.47;4.05;;;;;;;8.57;100.00;100193.50;4170536;28;20586;-51
2024/01/31 00:37:26;;;;;;;3.85;3.55;;;;;;;8.60;100.00;100195.81;4183234;28;20248;-51
2024/01/31 00:39:31;;;;;;;4.65;2.53;;;;;;;8.58;100.00;100187.00;4174558;28;20204;-50
2024/01/31 00:41:33;;;;;;;11.77;4.18;;;;;;;8.69;100.00;100186.47;4183149;28;20785;-50
2024/01/31 00:43:35;;;;;;;3.50;3.17;;;;;;;8.59;100.00;100185.94;4184203;28;20803;-50
2024/01/31 00:45:37;;;;;;;3.25;3.00;;;;;;;8.72;100.00;100186.06;4170345;28;20216;-49
2024/01/31 00:47:38;;;;;;;8.35;3.05;;;;;;;8.63;100.00;100181.78;4176254;28;20216;-50
2024/01/31 00:49:40;;;;;;;3.88;3.58;;;;;;;8.66;100.00;100178.66;4183711;28;20811;-50
2024/01/31 00:51:43;;;;;;;3.75;3.30;;;;;;;8.78;100.00;100185.28;4183073;28;20208;-51
2024/01/31 00:53:45;;;;;;;4.03;3.40;;;;;;;8.73;100.00;100182.28;4171087;28;20227;-50
2024/01/31 00:55:47;;;;;;;3.67;3.38;;;;;;;8.62;100.00;100191.03;4174802;28;20212;-50
2024/01/31 00:57:49;;;;;;;4.65;4.25;;;;;;;8.68;100.00;100187.50;4172269;28;20306;-50
2024/01/31 00:59:51;;;;;;;4.15;2.92;;;;;;;8.65;100.00;100190.63;4168275;28;20223;-49
2024/01/31 01:01:53;;;;;;;4.22;3.85;;;;;;;8.66;100.00;100203.22;4175364;28;20212;-50
2024/01/31 01:03:54;;;;;;;2.85;2.55;;;;;;;8.59;100.00;100191.41;4175508;28;20338;-50
2024/01/31 01:05:56;;;;;;;3.40;2.88;;;;;;;8.74;100.00;100195.75;4171919;28;20211;-50
2024/01/31 01:07:59;;;;;;;3.75;3.45;;;;;;;8.57;100.00;100193.50;4149802;28;20262;-51
2024/01/31 01:10:01;;;;;;;6.97;4.78;;;;;;;8.62;100.00;100188.31;4174321;28;20228;-50
2024/01/31 01:12:03;;;;;;;4.38;3.97;;;;;;;8.54;100.00;100189.28;4166251;28;20212;-50
2024/01/31 01:14:06;;;;;;;7.22;4.45;;;;;;;8.55;100.00;100190.97;4172275;28;20281;-50
2024/01/31 01:16:08;;;;;;;3.95;2.65;;;;;;;8.54;100.00;100200.19;4165726;28;20208;-49
2024/01/31 01:18:10;;;;;;;3.53;3.22;;;;;;;8.49;100.00;100197.19;4171575;28;20215;-50
2024/01/31 01:20:12;;;;;;;4.28;3.13;;;;;;;8.47;100.00;100192.97;4173976;28;20246;-50
2024/01/31 01:22:14;;;;;;;8.82;3.20;;;;;;;8.48;100.00;100200.13;4184963;28;20218;-51
2024/01/31 01:24:16;;;;;;;3.13;2.72;;;;;;;8.47;100.00;100198.41;4165206;28;20225;-51
2024/01/31 01:26:17;;;;;;;4.28;4.00;;;;;;;8.47;100.00;100202.00;4164864;28;20290;-50
2024/01/31 01:28:19;;;;;;;4.97;4.03;;;;;;;8.47;100.00;100215.66;4169150;28;20962;-50
2024/01/31 01:30:21;;;;;;;6.45;3.40;;;;;;;8.43;100.00;100202.59;4169892;28;20224;-51
2024/01/31 01:32:23;;;;;;;8.48;5.53;;;;;;;8.53;100.00;100203.09;4176159;28;20558;-50
2024/01/31 01:34:25;;;;;;;6.68;6.07;;;;;;;8.43;100.00;100205.31;4176327;28;20307;-51
2024/01/31 01:36:26;;;;;;;4.35;4.05;;;;;;;8.42;100.00;100200.91;4169887;28;20209;-51
2024/01/31 01:38:28;;;;;;;4.47;4.07;;;;;;;8.42;100.00;100200.91;4175895;28;20690;-51
2024/01/31 01:40:30;;;;;;;4.53;4.15;;;;;;;8.36;100.00;100207.97;4166109;28;20262;-51
2024/01/31 01:42:32;;;;;;;4.00;3.70;;;;;;;8.35;100.00;100205.47;4168763;28;20212;-50
2024/01/31 01:44:34;;;;;;;4.70;4.22;;;;;;;8.42;100.00;100211.81;4175115;28;20207;-51
2024/01/31 01:46:36;;;;;;;4.75;4.30;;;;;;;8.32;100.00;100205.84;4169527;28;20215;-51
2024/01/31 01:48:38;;;;;;;5.38;4.30;;;;;;;8.30;100.00;100202.47;4158055;28;20200;-50
2024/01/31 01:50:40;;;;;;;4.28;3.97;;;;;;;8.31;100.00;100204.16;4172169;28;20232;-51
2024/01/31 01:52:41;;;;;;;4.30;3.92;;;;;;;8.31;100.00;100204.16;4172357;28;20228;-50
2024/01/31 01:54:45;;;;;;;5.53;5.07;;;;;;;8.29;100.00;100196.16;4178717;28;20207;-50
2024/01/31 01:56:48;;;;;;;4.32;3.92;;;;;;;8.30;100.00;100205.19;4178277;28;20764;-51
2024/01/31 01:58:51;;;;;;;3.53;3.22;;;;;;;8.27;100.00;100202.84;4175075;28;20720;-50
2024/01/31 02:00:53;;;;;;;4.40;4.00;;;;;;;8.31;100.00;100195.97;4164510;28;20283;-50
2024/01/31 02:02:54;;;;;;;4.07;3.65;;;;;;;8.23;100.00;100201.56;4165643;28;20231;-52
2024/01/31 02:04:56;;;;;;;4.35;3.67;;;;;;;8.23;100.00;100193.38;4167431;28;20283;-51
2024/01/31 02:06:58;;;;;;;5.15;2.75;;;;;;;8.21;100.00;100198.19;4175585;28;20830;-52
2024/01/31 02:09:01;;;;;;;3.40;3.10;;;;;;;8.19;100.00;100201.09;4185424;28;20313;-52
2024/01/31 02:11:03;;;;;;;3.17;2.90;;;;;;;8.17;100.00;100196.84;4175684;28;20266;-52
2024/01/31 02:13:05;;;;;;;3.28;2.97;;;;;;;8.18;100.00;100201.25;4168930;28;20255;-54
2024/01/31 02:15:07;;;;;;;2.08;1.88;;;;;;;8.11;100.00;100208.50;4172184;28;20247;-52
2024/01/31 02:17:09;;;;;;;3.28;2.30;;;;;;;8.09;100.00;100196.97;4178788;28;20563;-52
2024/01/31 02:19:11;;;;;;;2.28;2.08;;;;;;;8.01;100.00;100189.75;4189183;28;20249;-53
2024/01/31 02:21:14;;;;;;;4.20;2.42;;;;;;;7.96;100.00;100194.09;4177477;28;20658;-51
2024/01/31 02:23:16;;;;;;;2.33;2.17;;;;;;;7.97;100.00;100201.22;4161370;28;20224;-51
2024/01/31 02:25:18;;;;;;;3.17;2.90;;;;;;;7.97;100.00;100206.69;4169051;28;20246;-50
2024/01/31 02:27:20;;;;;;;2.13;1.95;;;;;;;7.94;100.00;100204.31;4157138;28;20221;-51
2024/01/31 02:29:22;;;;;;;5.07;2.35;;;;;;;7.87;100.00;100206.13;4172373;28;20208;-50
2024/01/31 02:31:24;;;;;;;8.35;2.90;;;;;;;7.85;100.00;100202.75;4168051;28;20220;-51
2024/01/31 02:33:26;;;;;;;3.97;2.65;;;;;;;7.88;100.00;100210.56;4172844;28;20232;-51
2024/01/31 02:35:31;;;;;;;2.65;2.05;;;;;;;7.86;100.00;100220.78;4169406;28;20205;-51
2024/01/31 02:37:33;;;;;;;4.78;1.75;;;;;;;7.87;100.00;100219.75;4171723;28;20220;-51
2024/01/31 02:39:35;;;;;;;2.80;2.55;;;;;;;7.88;100.00;100224.19;4178469;28;20212;-51
2024/01/31 02:41:36;;;;;;;2.38;1.98;;;;;;;7.91;100.00;100221.06;4173337;28;20269;-51
2024/01/31 02:43:38;;;;;;;2.78;2.58;;;;;;;7.89;100.00;100218.53;4177572;28;20676;-52
2024/01/31 02:45:40;;;;;;;2.70;2.50;;;;;;;7.94;100.00;100207.06;4179111;28;20204;-51
2024/01/31 02:47:44;;;;;;;3.15;2.85;;;;;;;7.84;100.00;100206.53;4168503;28;20721;-51
2024/01/31 02:49:49;;;;;;;1.83;1.73;;;;;;;7.78;100.00;100210.00;4154278;28;20266;-53
2024/01/31 02:51:52;;;;;;;2.28;1.90;;;;;;;7.79;100.00;100219.88;4188774;28;20286;-52
2024/01/31 02:53:54;;;;;;;3.00;2.38;;;;;;;7.80;100.00;100216.09;4173300;28;20304;-51
2024/01/31 02:55:55;;;;;;;2.80;2.60;;;;;;;7.86;100.00;100228.97;4177715;28;20219;-51
2024/01/31 02:57:57;;;;;;;1.92;1.73;;;;;;;7.84;100.00;100223.72;4179620;28;20697;-51
2024/01/31 03:00:01;;;;;;;1.50;1.40;;;;;;;7.72;100.00;100221.66;4136319;28;20283;-50
2024/01/31 03:02:05;;;;;;;2.13;1.60;;;;;;;7.75;100.00;100218.59;4176806;28;20210;-51
2024/01/31 03:04:07;;;;;;;5.63;1.60;;;;;;;7.78;100.00;100212.75;4169365;28;20274;-52
2024/01/31 03:06:09;;;;;;;1.50;1.38;;;;;;;7.74;100.00;100208.69;4185902;28;20839;-50
2024/01/31 03:08:10;;;;;;;1.48;1.38;;;;;;;7.69;100.00;100213.88;4175538;28;20732;-53
2024/01/31 03:10:12;;;;;;;2.03;1.20;;;;;;;7.69;100.00;100224.78;4176711;28;20232;-50
2024/01/31 03:12:14;;;;;;;1.50;1.40;;;;;;;7.61;100.00;100227.63;4171907;28;20263;-51
2024/01/31 03:14:16;;;;;;;1.75;1.65;;;;;;;7.65;100.00;100226.19;4169938;28;20212;-51
2024/01/31 03:16:17;;;;;;;1.13;1.13;;;;;;;7.61;100.00;100222.19;4170310;28;20647;-51
2024/01/31 03:18:19;;;;;;;2.00;1.40;;;;;;;7.65;100.00;100234.38;4166727;28;20693;-53
2024/01/31 03:20:21;;;;;;;1.20;1.10;;;;;;;7.67;100.00;100229.56;4187394;28;20318;-51
2024/01/31 03:22:23;;;;;;;3.10;1.48;;;;;;;7.59;100.00;100235.13;4176993;28;20204;-53
2024/01/31 03:24:25;;;;;;;0.88;0.88;;;;;;;7.58;100.00;100238.88;4167226;28;20219;-51
2024/01/31 03:26:27;;;;;;;0.77;0.77;;;;;;;7.55;100.00;100242.00;4170364;28;20208;-51
2024/01/31 03:28:28;;;;;;;0.90;0.90;;;;;;;7.51;100.00;100233.34;4176779;28;20200;-50
2024/01/31 03:30:30;;;;;;;0.93;0.93;;;;;;;7.47;100.00;100233.91;4151682;28;20364;-52
2024/01/31 03:32:32;;;;;;;1.10;0.98;;;;;;;7.42;100.00;100234.47;4174049;28;20219;-53
2024/01/31 03:34:34;;;;;;;3.22;1.10;;;;;;;7.41;100.00;100237.41;4177247;28;20215;-53
2024/01/31 03:36:36;;;;;;;1.02;1.02;;;;;;;7.24;100.00;100230.44;4171175;28;20212;-53
2024/01/31 03:38:38;;;;;;;1.08;1.08;;;;;;;7.28;100.00;100226.31;4170729;28;20212;-50
2024/01/31 03:40:40;;;;;;;0.80;0.80;;;;;;;7.24;100.00;100225.00;4171935;28;20212;-52
2024/01/31 03:42:42;;;;;;;1.30;1.30;;;;;;;7.17;100.00;100224.03;4172612;28;20606;-50
2024/01/31 03:44:43;;;;;;;1.00;1.00;;;;;;;7.08;100.00;100225.19;4160333;28;20205;-50
2024/01/31 03:46:45;;;;;;;1.95;0.82;;;;;;;7.08;100.00;100227.91;4170625;28;20261;-53
2024/01/31 03:48:47;;;;;;;1.05;1.05;;;;;;;7.05;100.00;100236.41;4182415;28;20207;-51
2024/01/31 03:50:49;;;;;;;0.90;0.90;;;;;;;7.13;100.00;100249.94;4172529;28;20274;-52
2024/01/31 03:52:51;;;;;;;0.85;0.85;;;;;;;7.18;100.00;100259.25;4177126;28;20231;-53
2024/01/31 03:54:53;;;;;;;1.00;1.00;;;;;;;7.26;100.00;100250.13;4186628;28;20203;-51
2024/01/31 03:56:54;;;;;;;1.20;1.10;;;;;;;7.19;100.00;100260.94;4183778;28;20220;-50
2024/01/31 03:58:56;;;;;;;0.98;0.95;;;;;;;7.22;100.00;100254.28;4178066;28;20557;-53
2024/01/31 04:00:58;;;;;;;0.80;0.80;;;;;;;7.22;100.00;100260.56;4176433;28;20218;-50
2024/01/31 04:03:00;;;;;;;0.70;0.70;;;;;;;7.22;100.00;100259.72;4178446;28;20318;-50
2024/01/31 04:05:02;;;;;;;1.25;0.60;;;;;;;7.21;100.00;100264.31;4170623;28;20235;-53
2024/01/31 04:07:04;;;;;;;1.33;0.80;;;;;;;7.22;100.00;100270.63;4170273;28;20208;-51
2024/01/31 04:09:06;;;;;;;0.80;0.77;;;;;;;7.28;100.00;100278.06;4174622;28;20760;-54
2024/01/31 04:11:07;;;;;;;3.47;1.00;;;;;;;7.32;100.00;100272.03;4171304;28;20350;-50
2024/01/31 04:13:09;;;;;;;1.00;1.00;;;;;;;7.22;100.00;100273.34;4175642;28;20645;-52
2024/01/31 04:15:11;;;;;;;5.38;1.20;;;;;;;7.16;100.00;100269.47;4183823;28;20210;-52
2024/01/31 04:17:12;;;;;;;2.63;0.60;;;;;;;7.20;100.00;100269.94;4171028;28;20267;-51
2024/01/31 04:19:14;;;;;;;0.95;0.95;;;;;;;7.01;100.00;100262.31;4175136;28;20223;-51
2024/01/31 04:21:22;;;;;;;1.27;1.23;;;;;;;7.06;100.00;100263.47;4169689;28;20197;-52
2024/01/31 04:23:24;;;;;;;1.42;1.42;;;;;;;7.07;100.00;100267.88;4182955;28;20226;-51
2024/01/31 04:25:25;;;;;;;0.80;0.80;;;;;;;7.06;100.00;100265.31;4175447;28;20204;-52
2024/01/31 04:27:27;;;;;;;2.22;0.93;;;;;;;7.04;100.00;100273.69;4176791;28;20610;-51
2024/01/31 04:29:29;;;;;;;1.05;0.90;;;;;;;7.05;100.00;100269.06;4176399;28;20624;-52
2024/01/31 04:31:30;;;;;;;1.10;1.10;;;;;;;7.05;100.00;100269.06;4182987;28;20228;-53
2024/01/31 04:33:32;;;;;;;1.30;1.15;;;;;;;7.04;100.00;100270.13;4169250;28;20320;-50
2024/01/31 04:35:34;;;;;;;1.20;1.10;;;;;;;7.08;100.00;100268.72;4182438;28;20204;-51
2024/01/31 04:37:36;;;;;;;1.08;1.08;;;;;;;7.09;100.00;100276.69;4168327;28;20212;-51
2024/01/31 04:39:38;;;;;;;1.13;1.10;;;;;;;7.09;100.00;100262.25;4170163;28;20213;-51
2024/01/31 04:41:42;;;;;;;0.85;0.85;;;;;;;7.05;100.00;100269.06;4168534;28;20320;-50
2024/01/31 04:43:44;;;;;;;0.82;0.82;;;;;;;7.06;100.00;100270.75;4177357;28;20409;-50
2024/01/31 04:45:46;;;;;;;12.57;1.15;;;;;;;7.06;100.00;100276.22;4169065;28;20212;-50
2024/01/31 04:47:48;;;;;;;0.93;0.93;;;;;;;7.19;100.00;100270.97;4157362;28;20209;-52
2024/01/31 04:49:49;;;;;;;1.20;1.20;;;;;;;7.02;100.00;100264.84;4152689;28;20271;-51
2024/01/31 04:51:54;;;;;;;0.93;0.93;;;;;;;7.02;100.00;100269.47;4167687;28;20241;-53
2024/01/31 04:53:56;;;;;;;1.55;1.08;;;;;;;6.96;100.00;100275.63;4173419;28;20543;-50
2024/01/31 04:55:58;;;;;;;1.13;1.13;;;;;;;6.92;100.00;100274.31;4166490;28;20216;-51
2024/01/31 04:58:00;;;;;;;0.70;0.70;;;;;;;6.92;100.00;100274.31;4175970;28;20204;-52
2024/01/31 05:00:04;;;;;;;0.70;0.70;;;;;;;6.90;100.00;100281.81;4169755;28;20299;-50
2024/01/31 05:02:07;;;;;;;2.63;0.80;;;;;;;6.85;100.00;100286.94;4169856;28;20212;-50
2024/01/31 05:04:09;;;;;;;0.80;0.80;;;;;;;6.94;100.00;100277.69;4176640;28;20223;-50
2024/01/31 05:06:11;;;;;;;0.82;0.82;;;;;;;6.83;100.00;100275.41;4185446;28;20211;-52
2024/01/31 05:08:13;;;;;;;1.20;1.20;;;;;;;6.75;100.00;100278.22;4174359;28;20603;-51
2024/01/31 05:10:14;;;;;;;0.88;0.88;;;;;;;6.75;100.00;100276.31;4172113;28;20701;-52
2024/01/31 05:12:16;;;;;;;1.00;1.00;;;;;;;6.93;100.00;100281.44;4169503;28;20316;-52
2024/01/31 05:14:18;;;;;;;0.90;0.90;;;;;;;6.76;100.00;100282.63;4175276;28;20247;-50
2024/01/31 05:16:20;;;;;;;0.73;0.73;;;;;;;6.75;100.00;100273.59;4168501;28;20641;-52
2024/01/31 05:18:21;;;;;;;0.70;0.70;;;;;;;6.89;100.00;100274.69;4167141;28;20208;-50
2024/01/31 05:20:23;;;;;;;0.63;0.63;;;;;;;6.60;100.00;100274.56;4176282;28;20211;-50
2024/01/31 05:22:26;;;;;;;1.00;1.00;;;;;;;6.55;100.00;100275.13;4167560;28;20208;-51
2024/01/31 05:24:28;;;;;;;1.77;1.50;;;;;;;6.78;100.00;100265.09;4152938;28;20201;-50
2024/01/31 05:26:29;;;;;;;1.52;1.42;;;;;;;6.72;100.00;100267.69;4173310;28;20209;-53
2024/01/31 05:28:31;;;;;;;1.23;1.23;;;;;;;6.58;100.00;100279.34;4173516;28;20729;-51
2024/01/31 05:30:33;;;;;;;1.38;1.27;;;;;;;6.57;100.00;100280.38;4168551;28;20228;-51
2024/01/31 05:32:35;;;;;;;1.73;1.40;;;;;;;6.53;100.00;100279.03;4175459;28;20274;-52
2024/01/31 05:34:37;;;;;;;0.80;0.80;;;;;;;6.60;100.00;100274.56;4176222;28;20698;-53
2024/01/31 05:36:39;;;;;;;0.77;0.77;;;;;;;6.37;100.00;100271.84;4175057;28;20200;-51
2024/01/31 05:38:40;;;;;;;1.35;1.25;;;;;;;6.34;100.00;100274.06;4155123;28;20215;-53
2024/01/31 05:40:44;;;;;;;0.88;0.88;;;;;;;6.41;100.00;100280.47;4166774;28;20257;-52
2024/01/31 05:42:46;;;;;;;1.08;1.08;;;;;;;6.52;100.00;100275.50;4169752;28;20232;-57
2024/01/31 05:44:53;;;;;;;1.40;1.30;;;;;;;6.44;100.00;100280.13;4182666;28;20215;-52
2024/01/31 05:46:55;;;;;;;3.13;1.50;;;;;;;6.41;100.00;100269.59;4169352;28;20223;-51
2024/01/31 05:48:57;;;;;;;2.17;1.83;;;;;;;6.31;100.00;100269.00;4168882;28;20215;-54
2024/01/31 05:50:59;;;;;;;1.27;1.17;;;;;;;6.54;100.00;100283.44;4165334;28;20228;-51
2024/01/31 05:53:01;;;;;;;0.98;0.98;;;;;;;6.32;100.00;100279.72;4163672;28;20672;-52
2024/01/31 05:55:03;;;;;;;1.10;1.00;;;;;;;6.22;100.00;100275.53;4166155;28;20205;-52
2024/01/31 05:57:05;;;;;;;0.88;0.88;;;;;;;6.13;100.00;100276.59;4174216;28;20224;-55
2024/01/31 05:59:08;;;;;;;1.20;1.13;;;;;;;6.07;100.00;100282.75;4175094;28;20273;-53
2024/01/31 06:01:10;;;;;;;1.10;1.10;;;;;;;6.16;100.00;100281.69;4171079;28;20577;-51
2024/01/31 06:03:12;;;;;;;0.98;0.88;;;;;;;6.14;100.00;100283.72;4167435;28;20263;-52
2024/01/31 06:05:14;;;;;;;0.88;0.88;;;;;;;6.18;100.00;100277.78;4167222;28;20207;-52
2024/01/31 06:07:16;;;;;;;0.80;0.80;;;;;;;6.05;100.00;100280.22;4169223;28;20204;-51
2024/01/31 06:09:18;;;;;;;1.63;0.95;;;;;;;6.34;100.00;100290.38;4177940;28;20212;-52
2024/01/31 06:11:19;;;;;;;4.18;1.10;;;;;;;6.16;100.00;100293.38;4170046;28;20228;-52
2024/01/31 06:13:21;;;;;;;1.13;1.13;;;;;;;6.14;100.00;100294.59;4171191;28;20383;-53
2024/01/31 06:15:24;;;;;;;1.10;1.10;;;;;;;6.32;100.00;100289.72;4184073;28;20291;-51
2024/01/31 06:17:26;;;;;;;2.60;2.40;;;;;;;6.02;100.00;100288.72;4168473;28;20208;-55
2024/01/31 06:19:27;;;;;;;1.67;1.58;;;;;;;6.19;100.00;100294.91;4173477;28;20208;-51
2024/01/31 06:21:29;;;;;;;2.15;1.77;;;;;;;6.03;100.00;100276.00;4168509;28;20208;-52
2024/01/31 06:23:31;;;;;;;1.52;1.42;;;;;;;5.84;100.00;100277.25;4175111;28;20228;-52
2024/01/31 06:25:33;;;;;;;1.30;1.20;;;;;;;5.89;100.00;100279.47;4173151;28;20295;-51
2024/01/31 06:27:35;;;;;;;1.10;1.08;;;;;;;5.96;100.00;100270.41;4174506;28;20270;-52
2024/01/31 06:29:38;;;;;;;1.25;1.20;;;;;;;6.05;100.00;100263.06;4175727;28;20701;-51
2024/01/31 06:31:46;;;;;;;1.00;1.00;;;;;;;5.79;100.00;100257.03;4175186;28;20680;-54
2024/01/31 06:33:48;;;;;;;1.30;1.20;;;;;;;5.85;100.00;100256.38;4185447;28;20227;-54
2024/01/31 06:35:50;;;;;;;1.38;1.27;;;;;;;5.72;100.00;100258.78;4165953;28;20698;-51
2024/01/31 06:37:52;;;;;;;1.08;1.02;;;;;;;5.74;100.00;100257.59;4161617;28;20208;-52
2024/01/31 06:39:54;;;;;;;1.00;1.00;;;;;;;5.86;100.00;100268.94;4177302;28;20216;-52
2024/01/31 06:41:56;;;;;;;2.33;1.60;;;;;;;5.79;100.00;100270.63;4187748;28;20227;-51
2024/01/31 06:43:57;;;;;;;0.68;0.63;;;;;;;5.78;100.00;100268.94;4173807;28;20229;-52
2024/01/31 06:45:59;;;;;;;1.02;1.02;;;;;;;5.81;100.00;100271.31;4184543;28;20762;-52
2024/01/31 06:48:02;;;;;;;1.85;1.70;;;;;;;5.75;100.00;100266.59;4171065;28;20314;-53
2024/01/31 06:50:04;;;;;;;1.50;1.40;;;;;;;5.85;100.00;100264.53;4169264;28;20649;-52
2024/01/31 06:52:06;;;;;;;1.38;1.38;;;;;;;5.98;100.00;100259.38;4183685;28;20772;-54
2024/01/31 06:54:08;;;;;;;0.90;0.90;;;;;;;5.73;100.00;100263.19;4169572;28;20251;-51
2024/01/31 06:56:16;;;;;;;1.98;1.88;;;;;;;5.65;100.00;100257.78;4169093;28;20211;-53
2024/01/31 06:58:18;;;;;;;1.85;1.42;;;;;;;5.62;100.00;100266.31;4172128;28;20635;-52
2024/01/31 07:00:20;;;;;;;1.15;1.13;;;;;;;5.64;100.00;100272.41;4174375;28;20564;-52
2024/01/31 07:02:22;;;;;;;1.52;1.23;;;;;;;5.62;100.00;100271.75;4169238;28;20227;-53
2024/01/31 07:04:24;;;;;;;1.23;1.23;;;;;;;5.73;100.00;100274.03;4176686;28;20208;-53
2024/01/31 07:06:26;;;;;;;2.05;1.38;;;;;;;5.65;100.00;100276.81;4160026;28;20213;-52
2024/01/31 07:08:27;;;;;;;3.10;1.92;;;;;;;5.77;100.00;100287.09;4172032;28;20258;-51
2024/01/31 07:10:29;;;;;;;1.50;1.23;;;;;;;5.77;100.00;100291.69;4172594;28;20262;-52
2024/01/31 07:12:31;;;;;;;2.13;1.40;;;;;;;5.80;100.00;100286.78;4170575;28;20283;-53
2024/01/31 07:14:33;;;;;;;1.88;1.77;;;;;;;5.72;100.00;100294.09;4173771;28;20200;-52
2024/01/31 07:16:35;;;;;;;1.05;1.05;;;;;;;5.64;100.00;100294.13;4170257;28;20217;-54
2024/01/31 07:18:41;;;;;;;1.58;1.48;;;;;;;5.62;100.00;100298.91;4170614;28;20291;-51
2024/01/31 07:20:44;;;;;;;1.02;1.02;;;;;;;5.61;100.00;100298.03;4174050;28;20214;-52
2024/01/31 07:22:45;;;;;;;1.40;1.40;;;;;;;5.62;100.00;100305.16;4167778;28;20599;-53
2024/01/31 07:24:47;;;;;;;1.15;1.15;;;;;;;5.58;100.00;100302.97;4175470;28;20250;-51
2024/01/31 07:26:49;;;;;;;1.73;1.55;;;;;;;5.61;100.00;100302.59;4186492;28;20230;-56
2024/01/31 07:28:51;;;;;;;2.08;1.95;;;;;;;5.56;100.00;100297.69;4175959;28;20217;-52
2024/01/31 07:30:53;;;;;;;2.85;2.50;;;;;;;5.56;100.00;100310.44;4174669;28;20212;-52
2024/01/31 07:32:54;;;;;;;1.50;1.40;;;;;;;5.66;100.00;100302.94;4160094;28;20415;-53
2024/01/31 07:34:56;;;;;;;1.77;1.67;;;;;;;5.81;100.00;100312.94;4168704;28;20208;-51
2024/01/31 07:36:58;;;;;;;1.83;1.65;;;;;;;5.72;100.00;100302.22;4176265;28;20211;-53
2024/01/31 07:39:00;;;;;;;1.85;1.75;;;;;;;5.66;100.00;100306.50;4169249;28;20240;-52
2024/01/31 07:41:01;;;;;;;1.42;1.42;;;;;;;5.62;100.00;100309.75;4149428;28;20219;-53
2024/01/31 07:43:04;;;;;;;2.35;1.88;;;;;;;5.65;100.00;100306.69;4171598;28;20232;-54
2024/01/31 07:45:06;;;;;;;9.80;1.48;;;;;;;5.79;100.00;100311.38;4167677;28;20212;-53
2024/01/31 07:47:08;;;;;;;2.15;2.03;;;;;;;5.74;100.00;100308.31;4172713;28;20270;-54
2024/01/31 07:49:09;;;;;;;1.85;1.65;;;;;;;5.69;100.00;100310.75;4171560;28;20597;-52
2024/01/31 07:51:11;;;;;;;1.60;1.50;;;;;;;5.70;100.00;100307.00;4171101;28;20240;-52
2024/01/31 07:53:13;;;;;;;2.35;2.03;;;;;;;5.70;100.00;100317.88;4174116;28;20232;-51
2024/01/31 07:55:15;;;;;;;2.28;1.77;;;;;;;5.72;100.00;100321.25;4170460;28;20208;-54
2024/01/31 07:57:17;;;;;;;1.60;1.50;;;;;;;5.81;100.00;100320.22;4173943;28;20220;-52
2024/01/31 07:59:19;;;;;;;1.90;1.58;;;;;;;5.83;100.00;100315.47;4154268;28;20213;-54
2024/01/31 08:01:20;;;;;;;1.48;1.38;;;;;;;5.83;100.00;100315.47;4152574;28;20275;-52
2024/01/31 08:03:22;;;;;;;1.85;1.75;;;;;;;5.84;100.00;100315.28;4185725;28;20231;-51
2024/01/31 08:05:24;;;;;;;1.48;1.33;;;;;;;5.90;100.00;100319.19;4175235;28;20211;-52
2024/01/31 08:07:26;;;;;;;1.90;1.80;;;;;;;5.97;100.00;100312.84;4169783;28;20204;-52
2024/01/31 08:09:33;;;;;;;2.30;2.10;;;;;;;5.96;100.00;100315.75;4171847;28;20211;-52
2024/01/31 08:11:41;;;;;;;1.77;1.60;;;;;;;5.86;100.00;100315.13;4169411;28;20235;-52
2024/01/31 08:13:43;;;;;;;1.95;1.85;;;;;;;5.82;100.00;100316.50;4176440;28;20327;-53
2024/01/31 08:15:45;;;;;;;1.85;1.67;;;;;;;5.86;100.00;100323.25;4175854;28;20295;-53
2024/01/31 08:17:50;;;;;;;2.83;2.55;;;;;;;5.86;100.00;100315.13;4176759;28;20765;-54
2024/01/31 08:19:52;;;;;;;4.00;3.35;;;;;;;5.91;100.00;100315.44;4167009;28;20264;-56
2024/01/31 08:21:59;;;;;;;9.93;5.55;;;;;;;5.84;100.00;100320.72;4176649;28;20261;-52
2024/01/31 08:24:01;;;;;;;6.05;4.03;;;;;;;5.87;100.00;100327.66;4156695;28;20272;-51
2024/01/31 08:26:05;;;;;;;4.88;4.40;;;;;;;5.85;100.00;100327.88;4173860;28;20204;-51
2024/01/31 08:28:06;;;;;;;4.53;3.15;;;;;;;5.88;100.00;100316.63;4174369;28;20208;-51
2024/01/31 08:30:09;;;;;;;4.32;2.95;;;;;;;5.88;100.00;100326.66;4167735;28;20208;-51
2024/01/31 08:32:11;;;;;;;2.60;2.40;;;;;;;5.94;100.00;100334.09;4165729;28;20224;-51
2024/01/31 08:34:13;;;;;;;3.35;3.15;;;;;;;6.00;100.00;100325.22;4174801;28;20263;-52
2024/01/31 08:36:15;;;;;;;7.20;3.63;;;;;;;6.04;100.00;100321.16;4170483;28;20250;-51
2024/01/31 08:38:18;;;;;;;3.20;3.00;;;;;;;6.08;100.00;100322.50;4174793;28;20212;-51
2024/01/31 08:40:19;;;;;;;2.90;2.58;;;;;;;6.15;100.00;100321.59;4165878;28;20605;-51
2024/01/31 08:42:23;;;;;;;3.55;2.65;;;;;;;6.21;100.00;100322.75;4167938;28;20224;-51
2024/01/31 08:44:24;;;;;;;2.40;2.20;;;;;;;6.24;100.00;100317.78;4169412;28;20200;-49
2024/01/31 08:46:27;;;;;;;3.25;2.92;;;;;;;6.29;100.00;100314.56;4172148;28;20210;-51
2024/01/31 08:48:29;;;;;;;3.10;2.88;;;;;;;6.33;100.00;100318.59;4175501;28;20203;-51
2024/01/31 08:50:31;;;;;;;2.90;2.67;;;;;;;6.40;100.00;100311.41;4170895;28;20204;-51
2024/01/31 08:52:34;;;;;;;2.90;2.70;;;;;;;6.40;100.00;100322.31;4176242;28;20453;-51
2024/01/31 08:54:35;;;;;;;2.20;2.08;;;;;;;6.50;100.00;100314.78;4182715;28;20573;-51
2024/01/31 08:56:37;;;;;;;1.95;1.85;;;;;;;6.52;100.00;100308.13;4170072;28;20674;-51
2024/01/31 08:58:39;;;;;;;1.80;1.70;;;;;;;6.55;100.00;100309.66;4168351;28;20298;-51
2024/01/31 09:00:41;;;;;;;2.20;2.10;;;;;;;6.57;100.00;100315.75;4171270;28;20673;-52
2024/01/31 09:02:42;;;;;;;3.15;2.92;;;;;;;6.50;100.00;100325.66;4154846;28;20714;-51
2024/01/31 09:04:44;;;;;;;7.05;2.47;;;;;;;6.60;100.00;100318.09;4173924;28;20661;-51
2024/01/31 09:06:46;;;;;;;3.22;2.85;;;;;;;6.62;100.00;100322.31;4167006;28;20307;-51
2024/01/31 09:08:48;;;;;;;3.90;3.55;;;;;;;6.72;100.00;100320.22;4170806;28;20823;-52
2024/01/31 09:10:50;;;;;;;3.63;3.33;;;;;;;6.79;100.00;100325.75;4173226;28;20689;-52
2024/01/31 09:12:53;;;;;;;2.92;2.70;;;;;;;6.91;100.00;100322.47;4174426;28;20716;-52
2024/01/31 09:14:55;;;;;;;2.78;2.53;;;;;;;7.00;100.00;100324.06;4166402;28;20236;-52
2024/01/31 09:16:57;;;;;;;1.48;1.48;;;;;;;7.07;100.00;100310.56;4177154;28;20215;-50
2024/01/31 09:19:00;;;;;;;3.03;2.30;;;;;;;7.04;100.00;100300.06;4168667;28;20602;-51
2024/01/31 09:21:02;;;;;;;2.25;2.05;;;;;;;6.96;100.00;100314.56;4167803;28;20292;-51
2024/01/31 09:23:04;;;;;;;2.45;1.60;;;;;;;7.08;100.00;100306.84;4168636;28;20224;-51
2024/01/31 09:25:06;;;;;;;1.67;1.55;;;;;;;7.24;100.00;100307.53;4181782;28;20207;-51
2024/01/31 09:27:08;;;;;;;2.42;2.22;;;;;;;7.51;100.00;100303.31;4176004;28;20769;-52